createdAt,value
2019-04-06T04:02:07.008Z,3
2019-04-06T04:05:37.884Z,6
2019-04-06T04:09:07.755Z,9
2019-04-06T04:12:37.604Z,16
2019-04-06T04:16:07.480Z,27
2019-04-06T04:19:37.340Z,45
2019-04-06T04:23:07.208Z,70
2019-04-06T04:26:37.074Z,102
2019-04-06T04:30:06.941Z,145
2019-04-06T04:33:37.827Z,207
2019-04-06T04:37:07.673Z,279
2019-04-06T04:40:37.543Z,358
2019-04-06T04:44:07.404Z,445
2019-04-06T04:47:37.286Z,570
2019-04-06T04:51:07.157Z,726
2019-04-06T04:54:37.073Z,878
2019-04-06T04:58:06.926Z,1071
2019-04-06T05:01:36.795Z,1255
2019-04-06T05:05:04.668Z,1395
2019-04-06T05:08:34.526Z,1564
2019-04-06T05:12:04.397Z,1739
2019-04-06T05:15:34.355Z,1913
2019-04-06T05:19:04.153Z,2103
2019-04-06T05:22:34.027Z,2325
2019-04-06T05:26:03.896Z,2508
2019-04-06T05:29:34.735Z,2744
2019-04-06T05:33:04.601Z,2940
2019-04-06T05:36:34.468Z,3080
2019-04-06T05:40:04.339Z,3205
2019-04-06T05:43:34.226Z,3337
2019-04-06T05:47:04.097Z,3441
2019-04-06T05:50:33.908Z,3549
2019-04-06T05:54:03.746Z,3596
2019-04-06T06:02:30.458Z,3582
2019-04-06T06:06:01.344Z,3505
2019-04-06T06:10:41.400Z,3394
2019-04-06T06:14:11.268Z,3354
2019-04-06T06:17:41.058Z,3367
2019-04-06T06:21:10.891Z,3423
2019-04-06T06:24:40.918Z,3571
2019-04-06T06:28:15.421Z,3762
2019-04-06T06:31:44.522Z,4020
2019-04-06T06:35:14.374Z,4193
2019-04-06T06:38:45.181Z,4628
2019-04-06T06:42:15.988Z,5230
2019-04-06T06:45:45.815Z,5467
2019-04-06T06:49:17.049Z,5527
2019-04-06T06:52:46.865Z,5700
2019-04-06T06:56:16.705Z,5997
2019-04-06T06:59:46.727Z,5837
2019-04-06T07:03:16.371Z,5550
2019-04-06T07:06:46.215Z,5511
2019-04-06T07:10:16.189Z,5739
2019-04-06T07:13:46.095Z,6368
2019-04-06T07:17:15.900Z,6963
2019-04-06T07:20:45.959Z,7793
2019-04-06T07:24:15.597Z,8528
2019-04-06T07:27:45.445Z,8362
2019-04-06T07:31:15.441Z,8682
2019-04-06T07:34:46.182Z,8631
2019-04-06T07:38:16.021Z,9011
2019-04-06T07:41:45.857Z,9851
2019-04-06T07:45:15.751Z,10230
2019-04-06T07:48:45.593Z,9910
2019-04-06T07:52:15.428Z,8940
2019-04-06T07:55:45.276Z,8151
2019-04-06T07:59:15.175Z,7476
2019-04-06T08:02:45.974Z,7490
2019-04-06T08:06:15.734Z,7268
2019-04-06T08:09:45.600Z,7155
2019-04-06T08:13:15.414Z,7114
2019-04-06T08:16:45.239Z,7173
2019-04-06T08:20:16.091Z,7562
2019-04-06T08:23:46.115Z,7737
2019-04-06T08:27:15.795Z,7769
2019-04-06T08:30:47.683Z,7660
2019-04-06T08:34:17.480Z,7876
2019-04-06T08:37:47.357Z,7951
2019-04-06T08:41:17.350Z,8054
2019-04-06T08:44:47.047Z,8278
2019-04-06T08:48:17.028Z,8358
2019-04-06T08:51:46.976Z,8417
2019-04-06T08:55:16.915Z,8546
2019-04-06T08:58:46.838Z,8692
2019-04-06T09:02:16.552Z,8816
2019-04-06T09:05:47.345Z,8978
2019-04-06T09:09:17.363Z,9087
2019-04-06T09:12:50.633Z,9181
2019-04-06T09:16:21.499Z,9312
2019-04-06T09:19:51.417Z,9393
2019-04-06T09:23:21.442Z,9217
2019-04-06T09:26:51.357Z,9095
2019-04-06T09:30:21.383Z,9371
2019-04-06T09:33:51.183Z,9837
2019-04-06T09:37:23.876Z,10416
2019-04-06T09:40:53.920Z,10716
2019-04-06T09:44:23.898Z,11263
2019-04-06T09:47:53.716Z,11811
2019-04-06T09:51:23.664Z,15163
2019-04-06T09:54:53.414Z,11873
2019-04-06T09:58:23.307Z,11920
2019-04-06T10:01:53.139Z,12188
2019-04-06T10:05:22.994Z,12007
2019-04-06T10:08:53.931Z,12356
2019-04-06T10:12:23.858Z,12659
2019-04-06T10:15:53.768Z,12820
2019-04-06T10:19:23.588Z,13151
2019-04-06T10:22:53.461Z,13307
2019-04-06T10:26:23.395Z,13269
2019-04-06T10:29:53.508Z,13594
2019-04-06T10:33:23.418Z,13936
2019-04-06T10:36:53.374Z,13959
2019-04-06T10:40:23.298Z,14019
2019-04-06T10:43:53.070Z,14555
2019-04-06T10:47:22.938Z,14270
2019-04-06T10:50:53.750Z,14656
2019-04-06T10:54:23.609Z,16053
2019-04-06T10:57:53.825Z,19412
2019-04-06T11:01:24.127Z,20928
2019-04-06T11:04:53.919Z,24504
2019-04-06T11:08:23.868Z,28736
2019-04-06T11:11:54.161Z,31560
2019-04-06T11:15:26.498Z,16536
2019-04-06T11:18:56.574Z,21200
2019-04-06T11:22:27.866Z,15248
2019-04-06T11:25:57.753Z,12032
2019-04-06T11:29:27.592Z,14530
2019-04-06T11:32:57.529Z,19608
2019-04-06T11:36:27.714Z,26576
2019-04-06T11:39:58.533Z,26312
2019-04-06T11:43:28.592Z,29288
2019-04-06T11:46:58.575Z,16362
2019-04-06T11:50:28.570Z,15452
2019-04-06T11:53:58.451Z,20536
2019-04-06T11:57:28.538Z,24200
2019-04-06T12:01:01.066Z,30056
2019-04-06T12:04:29.224Z,31352
2019-04-06T12:07:58.908Z,25472
2019-04-06T12:11:29.620Z,32568
2019-04-06T12:14:59.512Z,30584
2019-04-06T12:18:29.388Z,26136
2019-04-06T12:21:59.309Z,27936
2019-04-06T12:25:29.172Z,29960
2019-04-06T12:28:58.998Z,37608
2019-04-06T12:32:28.922Z,38688
2019-04-06T12:35:58.861Z,38136
2019-04-06T12:39:28.566Z,38992
2019-04-06T12:42:58.474Z,40048
2019-04-06T12:46:28.255Z,38472
2019-04-06T12:49:58.276Z,34792
2019-04-06T12:53:28.203Z,42064
2019-04-06T12:56:57.960Z,40048
2019-04-06T13:00:27.798Z,40440
2019-04-06T13:03:57.839Z,42880
2019-04-06T13:07:27.872Z,40192
2019-04-06T13:10:57.576Z,38936
2019-04-06T13:14:27.442Z,34464
2019-04-06T13:17:57.294Z,11991
2019-04-06T13:21:27.218Z,11242
2019-04-06T13:24:56.990Z,12020
2019-04-06T13:28:26.981Z,25744
2019-04-06T13:32:01.221Z,41896
2019-04-06T13:35:32.265Z,20768
2019-04-06T13:39:02.493Z,29896
2019-04-06T13:42:32.021Z,34896
2019-04-06T13:46:02.154Z,50808
2019-04-06T13:49:32.297Z,51248
2019-04-06T13:53:03.117Z,27392
2019-04-06T13:56:32.998Z,43112
2019-04-06T14:00:02.924Z,46080
2019-04-06T14:03:33.856Z,46808
2019-04-06T14:07:03.762Z,46096
2019-04-06T14:10:33.633Z,35816
2019-04-06T14:14:03.506Z,46528
2019-04-06T14:17:33.653Z,44456
2019-04-06T14:21:04.494Z,38400
2019-04-06T14:24:34.108Z,13022
2019-04-06T14:28:04.264Z,9537
2019-04-06T14:31:34.867Z,10180
2019-04-06T14:35:04.666Z,36848
2019-04-06T14:38:34.508Z,22920
2019-04-06T14:42:04.354Z,15714
2019-04-06T14:45:34.281Z,32104
2019-04-06T14:49:13.787Z,36632
2019-04-06T14:52:39.801Z,34104
2019-04-06T14:56:10.076Z,16464
2019-04-06T14:59:39.475Z,9318
2019-04-06T15:03:09.407Z,8675
2019-04-06T15:06:39.261Z,8054
2019-04-06T15:10:09.089Z,7850
2019-04-06T15:13:38.926Z,7488
2019-04-06T15:17:09.754Z,7056
2019-04-06T15:20:39.567Z,6630
2019-04-06T15:24:09.406Z,6422
2019-04-06T15:27:39.301Z,5821
2019-04-06T15:31:09.123Z,5628
2019-04-06T15:34:38.954Z,5261
2019-04-06T15:38:09.086Z,4785
2019-04-06T15:41:38.824Z,4468
2019-04-06T15:45:09.793Z,4566
2019-04-06T15:48:42.298Z,4636
2019-04-06T15:52:16.215Z,4525
2019-04-06T15:55:46.284Z,4345
2019-04-06T15:59:15.727Z,3949
2019-04-06T16:02:19.369Z,3546
2019-04-06T16:05:49.195Z,3318
2019-04-06T16:09:20.076Z,3196
2019-04-06T16:12:49.890Z,3063
2019-04-06T16:16:19.760Z,2973
2019-04-06T16:19:49.607Z,2934
2019-04-06T16:23:19.475Z,2680
2019-04-06T16:26:49.552Z,2386
2019-04-06T16:30:19.653Z,1934
2019-04-06T16:33:49.427Z,2213
2019-04-06T16:37:19.213Z,2197
2019-04-06T16:40:49.094Z,2246
2019-04-06T16:44:19.040Z,2242
2019-04-06T16:47:49.137Z,2174
2019-04-06T16:51:19.109Z,2071
2019-04-06T16:54:49.012Z,1850
2019-04-06T16:58:19.046Z,1576
2019-04-06T17:01:49.482Z,1351
2019-04-06T17:05:19.651Z,1144
2019-04-06T17:08:49.718Z,971
2019-04-06T17:12:19.844Z,853
2019-04-06T17:15:49.579Z,754
2019-04-06T17:19:19.481Z,659
2019-04-06T17:22:49.465Z,584
2019-04-06T17:26:19.350Z,502
2019-04-06T17:29:51.665Z,426
2019-04-06T17:33:21.242Z,353
2019-04-06T17:36:51.557Z,282
2019-04-06T17:40:21.232Z,219
2019-04-06T17:43:51.369Z,171
2019-04-06T17:47:21.823Z,130
2019-04-06T17:50:51.431Z,96
2019-04-06T17:54:21.351Z,69
2019-04-06T17:57:51.280Z,49
2019-04-06T18:01:21.648Z,34
2019-04-06T18:04:51.236Z,22
2019-04-06T18:08:21.257Z,13
2019-04-06T18:11:50.944Z,8
2019-04-06T18:15:21.123Z,4
2019-04-06T18:18:51.056Z,2
2019-04-06T18:22:20.658Z,2
2019-04-06T18:25:50.764Z,1
2019-04-06T18:29:20.777Z,1
2019-04-06T18:33:00.197Z,0
2019-04-06T18:36:25.507Z,0
2019-04-06T18:39:55.705Z,0
2019-04-06T18:43:25.236Z,0
2019-04-06T18:46:55.104Z,0
2019-04-06T18:50:34.089Z,0
2019-04-06T18:54:00.054Z,0
2019-04-06T18:57:30.245Z,0
2019-04-06T19:01:00.732Z,0
2019-04-06T19:04:30.399Z,0
2019-04-06T19:08:00.456Z,0
2019-04-06T19:11:30.268Z,0
2019-04-06T19:15:00.237Z,0
2019-04-06T19:18:31.756Z,0
2019-04-06T19:22:02.577Z,0
2019-04-06T19:25:31.943Z,0
2019-04-06T19:29:01.880Z,0
2019-04-06T19:32:32.029Z,0
2019-04-06T19:36:02.147Z,0
2019-04-06T19:39:32.614Z,0
2019-04-06T19:43:04.458Z,0
2019-04-06T19:46:35.072Z,0
2019-04-06T19:50:05.986Z,0
2019-04-06T19:53:35.629Z,0
2019-04-06T19:57:06.628Z,0
2019-04-06T20:00:36.649Z,0
2019-04-06T20:04:06.857Z,0
2019-04-06T20:07:41.482Z,0
2019-04-06T20:11:12.257Z,0
2019-04-06T20:14:43.137Z,0
2019-04-06T20:18:13.777Z,0
2019-04-06T20:21:44.427Z,0
2019-04-06T20:25:14.806Z,0
2019-04-06T20:28:45.635Z,0
2019-04-06T20:32:16.001Z,0
2019-04-06T20:35:46.329Z,0
2019-04-06T20:39:15.931Z,0
2019-04-06T20:42:47.046Z,0
2019-04-06T20:46:20.851Z,0
2019-04-06T20:49:51.757Z,0
2019-04-06T20:53:22.026Z,0
2019-04-06T20:56:57.935Z,0
2019-04-06T21:00:26.944Z,0
2019-04-06T21:04:02.711Z,0
2019-04-06T21:07:30.960Z,0
2019-04-06T21:11:02.724Z,0
2019-04-06T21:14:32.760Z,0
2019-04-06T21:18:02.798Z,0
2019-04-06T21:21:32.722Z,0
2019-04-06T21:25:02.680Z,0
2019-04-06T21:28:33.375Z,0
2019-04-06T21:32:03.663Z,0
2019-04-06T21:35:34.339Z,0
2019-04-06T21:39:05.038Z,0
2019-04-06T21:42:34.515Z,0
2019-04-06T21:46:04.439Z,0
2019-04-06T21:49:35.686Z,0
2019-04-06T21:53:04.940Z,0
2019-04-06T21:56:35.687Z,0
